Grantham, NH

8:27 PM EDT on October 21, 2014 (GMT -0400)
Olde Farms | Change Station
CLOSE
Current Station
Personal Weather Station
Location: Grantham, NH
Elevation: 1125 ft
Nearby Weather Stations

Elev 1125 ft 43.51 °N, 72.15 °W | Updated 1 second ago

Overcast
Overcast
47.9 °F
Feels Like 48 °F
N
0.0
Wind Variable Wind from NNW
Gusts 0.0 mph

Today
High -- | Low -- °F
--% Chance of Precip.
Yesterday
High -- | Low -- °F
Precip. -- in
7:09 AM 5:55 PM
Waning Crescent, 4% visible
Pressure 30.02 in
Visibility 2.0 miles
Clouds Overcast 300 ft
Windchill 48 °F
Dew Point 48 °F
Humidity 100%
Rainfall 0.05 in
Snow Depth Not available.
UV 0 out of 12
Pollen .10 out of 12
Air Quality Not available.
Flu Activity Local Activity
METAR KLEB 212353Z 00000KT 2SM BR OVC003 09/07 A3001 RMK AO2 SLP164 60001 T00940072 10100 20094 53011

More Conditions Fewer Conditions

Pressure 30.02 in
Visibility 2.0 miles
Clouds Overcast 300 ft
Windchill 48 °F
Dew Point 48 °F
Humidity 100%
Rainfall 0.05 in
Snow Depth Not available.
UV 0 out of 12
Pollen .10 out of 12
Air Quality Not available.
Flu Activity Local Activity
METAR KLEB 212353Z 00000KT 2SM BR OVC003 09/07 A3001 RMK AO2 SLP164 60001 T00940072 10100 20094 53011

More Conditions Fewer Conditions

10-Day Weather Forecast

Almanac

Astronomy

Oct. 21, 2014 Rise Set
Actual Time 7:09 AM EDT 5:55 PM EDT
Civil Twilight 6:40 AM EDT 6:24 PM EDT
Nautical Twilight 6:07 AM EDT 6:58 PM EDT
Astronomical Twilight 5:34 AM EDT 7:31 PM EDT
Moon 4:47 AM EDT (10/21) 4:51 PM EDT (10/21)
Length of Visible Light 11h 43m
Length of Day
10h 45m
Tomorrow will be 2m 48s shorter.
Waning Crescent, 4% of the Moon is Illuminated
Today
Waning Crescent
Oct 23
New
Oct 30
First Quarter
Nov 6
Full
Nov 14
Last Quarter

Today's Extremes

State Highs State Lows

Community

WunderPhotos

Upload Photos

1,763,827 photos uploaded!

Nearby

Air Quality

  Air Quality AQ Index Pollutant
Tuesday Good
PM2.5
Tuesday Good
OZONE
Wednesday Good
PM2.5
Wednesday Good
OZONE

Snow Depth

Station Depth Elevation
No new snow has been reported.

Earthquake Activity

City Distance Mag. Time & Date
No recent earthquake activity has been reported nearby.
Minimum magnitude displayed is 2.5.

Coastal Water Temperatures

Place Temperature
No Stations Reporting

Nearby Weather Stations